createdAt,value
2019-05-20T00:00:23.456Z,16.30
2019-05-20T00:02:52.067Z,16.30
2019-05-20T00:05:20.625Z,16.20
2019-05-20T00:07:49.119Z,16.20
2019-05-20T00:10:17.571Z,16.20
2019-05-20T00:12:46.039Z,16.10
2019-05-20T00:15:14.609Z,16.10
2019-05-20T00:17:43.106Z,16.10
2019-05-20T00:20:11.763Z,16.10
2019-05-20T00:22:40.368Z,16.10
2019-05-20T00:25:09.251Z,16.10
2019-05-20T00:27:37.837Z,16.00
2019-05-20T00:30:07.669Z,16.00
2019-05-20T00:32:41.015Z,16.00
2019-05-20T00:35:07.770Z,15.90
2019-05-20T00:37:36.344Z,15.90
2019-05-20T00:40:09.375Z,15.90
2019-05-20T00:42:37.950Z,15.90
2019-05-20T00:45:06.944Z,15.90
2019-05-20T00:47:35.449Z,15.80
2019-05-20T00:50:05.363Z,15.80
2019-05-20T00:52:34.008Z,15.80
2019-05-20T00:55:02.611Z,15.80
2019-05-20T00:57:31.085Z,15.80
2019-05-20T00:59:59.619Z,15.80
2019-05-20T01:02:28.156Z,15.70
2019-05-20T01:04:56.694Z,15.70
2019-05-20T01:07:25.620Z,15.70
2019-05-20T01:09:54.200Z,15.70
2019-05-20T01:12:22.742Z,15.60
2019-05-20T01:14:51.688Z,15.60
2019-05-20T01:17:20.252Z,15.60
2019-05-20T01:19:48.823Z,15.60
2019-05-20T01:22:17.394Z,15.60
2019-05-20T01:24:45.857Z,15.60
2019-05-20T01:27:14.360Z,15.50
2019-05-20T01:29:42.927Z,15.50
2019-05-20T01:32:11.459Z,15.50
2019-05-20T01:34:39.961Z,15.50
2019-05-20T01:37:08.569Z,15.50
2019-05-20T01:39:37.145Z,15.40
2019-05-20T01:42:06.550Z,15.40
2019-05-20T01:44:35.114Z,15.40
2019-05-20T01:47:03.687Z,15.40
2019-05-20T01:49:32.276Z,15.40
2019-05-20T01:52:00.874Z,15.40
2019-05-20T01:54:29.411Z,15.40
2019-05-20T01:56:57.919Z,15.40
2019-05-20T01:59:26.534Z,15.40
2019-05-20T02:01:55.114Z,15.40
2019-05-20T02:04:23.680Z,15.40
2019-05-20T02:06:52.270Z,15.40
2019-05-20T02:09:20.812Z,15.40
2019-05-20T02:11:49.351Z,15.40
2019-05-20T02:14:25.814Z,15.30
2019-05-20T02:16:54.357Z,15.30
2019-05-20T02:19:22.924Z,15.30
2019-05-20T02:21:51.513Z,15.30
2019-05-20T02:24:20.088Z,15.30
2019-05-20T02:26:48.639Z,15.30
2019-05-20T02:29:17.236Z,15.30
2019-05-20T02:31:45.810Z,15.30
2019-05-20T02:34:14.388Z,15.30
2019-05-20T02:36:42.982Z,15.30
2019-05-20T02:39:11.853Z,15.30
2019-05-20T02:41:40.422Z,15.30
2019-05-20T02:44:09.043Z,15.30
2019-05-20T02:46:37.640Z,15.30
2019-05-20T02:49:06.142Z,15.30
2019-05-20T02:51:34.682Z,15.30
2019-05-20T02:54:03.467Z,15.30
2019-05-20T02:56:32.188Z,15.30
2019-05-20T02:59:01.316Z,15.30
2019-05-20T03:01:29.933Z,15.30
2019-05-20T03:04:10.849Z,15.40
2019-05-20T03:06:30.456Z,15.40
2019-05-20T03:08:59.004Z,15.40
2019-05-20T03:11:27.506Z,15.40
2019-05-20T03:13:56.085Z,15.40
2019-05-20T03:16:24.668Z,15.50
2019-05-20T03:18:53.230Z,15.50
2019-05-20T03:21:21.797Z,15.50
2019-05-20T03:23:50.338Z,15.60
2019-05-20T03:26:18.833Z,15.70
2019-05-20T03:28:47.454Z,15.70
2019-05-20T03:31:15.997Z,15.70
2019-05-20T03:33:44.533Z,15.80
2019-05-20T03:36:13.153Z,15.80
2019-05-20T03:38:41.701Z,15.90
2019-05-20T03:41:10.234Z,15.90
2019-05-20T03:43:38.744Z,16.00
2019-05-20T03:46:07.263Z,16.00
2019-05-20T03:48:35.801Z,16.00
2019-05-20T03:51:04.424Z,16.10
2019-05-20T03:53:33.006Z,16.10
2019-05-20T03:56:01.615Z,16.20
2019-05-20T03:58:30.170Z,16.20
2019-05-20T04:00:58.771Z,16.20
2019-05-20T04:03:27.348Z,16.30
2019-05-20T04:05:55.924Z,16.30
2019-05-20T04:08:24.396Z,16.40
2019-05-20T04:10:52.873Z,16.50
2019-05-20T04:13:21.440Z,16.50
2019-05-20T04:15:49.979Z,16.60
2019-05-20T04:18:18.558Z,16.70
2019-05-20T04:20:47.175Z,16.70
2019-05-20T04:23:15.784Z,16.80
2019-05-20T04:25:44.314Z,16.90
2019-05-20T04:28:12.916Z,17.00
2019-05-20T04:30:41.931Z,17.10
2019-05-20T04:33:10.536Z,17.10
2019-05-20T04:35:39.494Z,17.20
2019-05-20T04:38:08.024Z,17.30
2019-05-20T04:40:36.563Z,17.40
2019-05-20T04:43:05.098Z,17.50
2019-05-20T04:45:33.623Z,17.60
2019-05-20T04:48:02.179Z,17.60
2019-05-20T04:50:30.822Z,17.70
2019-05-20T04:52:59.331Z,17.80
2019-05-20T04:55:27.865Z,17.90
2019-05-20T04:57:56.426Z,17.90
2019-05-20T05:00:49.398Z,18.10
2019-05-20T05:03:18.005Z,18.20
2019-05-20T05:05:46.830Z,18.30
2019-05-20T05:08:15.759Z,18.40
2019-05-20T05:10:44.435Z,18.40
2019-05-20T05:13:12.998Z,18.50
2019-05-20T05:15:41.575Z,18.60
2019-05-20T05:18:10.133Z,18.70
2019-05-20T05:20:38.706Z,18.80
2019-05-20T05:23:07.263Z,18.80
2019-05-20T05:25:36.587Z,18.80
2019-05-20T05:28:05.867Z,18.80
2019-05-20T05:30:35.771Z,18.90
2019-05-20T05:33:04.822Z,19.00
2019-05-20T05:35:33.359Z,19.00
2019-05-20T05:38:02.800Z,19.10
2019-05-20T05:40:32.219Z,19.10
2019-05-20T05:43:00.698Z,19.20
2019-05-20T05:45:31.877Z,19.30
2019-05-20T05:48:01.221Z,19.30
2019-05-20T05:50:29.955Z,19.40
2019-05-20T05:52:58.547Z,19.50
2019-05-20T05:55:27.115Z,19.60
2019-05-20T05:57:55.614Z,19.70
2019-05-20T06:00:24.612Z,19.70
2019-05-20T06:02:53.213Z,19.80
2019-05-20T06:05:21.781Z,19.80
2019-05-20T06:07:50.351Z,19.90
2019-05-20T06:10:19.728Z,20.00
2019-05-20T06:12:48.335Z,20.20
2019-05-20T06:15:17.676Z,20.40
2019-05-20T06:17:46.299Z,20.50
2019-05-20T06:20:16.570Z,20.60
2019-05-20T06:22:45.236Z,20.70
2019-05-20T06:25:14.302Z,20.70
2019-05-20T06:27:42.875Z,20.80
2019-05-20T06:30:12.910Z,20.80
2019-05-20T06:32:41.871Z,20.70
2019-05-20T06:35:11.322Z,20.70
2019-05-20T06:37:56.943Z,20.80
2019-05-20T06:40:25.524Z,20.70
2019-05-20T06:42:54.822Z,20.60
2019-05-20T06:45:23.439Z,20.70
2019-05-20T06:47:52.012Z,20.90
2019-05-20T06:50:20.611Z,20.90
2019-05-20T06:52:49.173Z,20.90
2019-05-20T06:55:17.832Z,20.80
2019-05-20T06:57:46.543Z,21.00
2019-05-20T07:00:18.173Z,21.10
2019-05-20T07:02:46.848Z,21.20
2019-05-20T07:05:15.755Z,21.50
2019-05-20T07:07:44.287Z,21.50
2019-05-20T07:10:12.945Z,21.70
2019-05-20T07:12:41.939Z,21.70
2019-05-20T07:15:11.207Z,21.80
2019-05-20T07:17:39.694Z,21.90
2019-05-20T07:20:08.685Z,21.80
2019-05-20T07:22:54.577Z,21.80
2019-05-20T07:25:08.244Z,22.10
2019-05-20T07:27:36.788Z,22.40
2019-05-20T07:30:09.299Z,22.60
2019-05-20T07:32:37.847Z,22.80
2019-05-20T07:35:07.554Z,23.10
2019-05-20T07:37:36.674Z,23.30
2019-05-20T07:40:06.888Z,22.90
2019-05-20T07:42:35.561Z,22.90
2019-05-20T07:45:06.489Z,23.30
2019-05-20T07:47:35.674Z,23.40
2019-05-20T07:50:08.822Z,23.00
2019-05-20T07:52:37.262Z,22.90
2019-05-20T07:55:07.524Z,23.30
2019-05-20T07:57:39.036Z,23.30
2019-05-20T08:00:10.779Z,23.60
2019-05-20T08:02:39.809Z,23.70
2019-05-20T08:05:09.533Z,23.80
2019-05-20T08:07:51.492Z,23.90
2019-05-20T08:10:09.060Z,23.90
2019-05-20T08:12:37.687Z,24.40
2019-05-20T08:15:08.143Z,24.50
2019-05-20T08:17:36.779Z,24.80
2019-05-20T08:20:07.293Z,25.40
2019-05-20T08:22:35.946Z,25.10
2019-05-20T08:25:06.608Z,25.50
2019-05-20T08:27:35.272Z,25.00
2019-05-20T08:30:06.590Z,24.60
2019-05-20T08:32:35.129Z,24.80
2019-05-20T08:35:05.133Z,25.60
2019-05-20T08:37:44.858Z,26.40
2019-05-20T08:40:05.193Z,26.60
2019-05-20T08:42:33.733Z,27.70
2019-05-20T08:45:03.059Z,27.90
2019-05-20T08:47:33.061Z,29.10
2019-05-20T08:50:03.954Z,29.10
2019-05-20T08:52:32.039Z,29.00
2019-05-20T08:55:00.521Z,29.60
2019-05-20T08:57:29.108Z,28.30
2019-05-20T08:59:57.707Z,28.00
2019-05-20T09:02:26.249Z,27.40
2019-05-20T09:04:54.783Z,28.10
2019-05-20T09:07:23.420Z,27.90
2019-05-20T09:09:51.967Z,27.90
2019-05-20T09:12:20.552Z,26.90
2019-05-20T09:14:49.148Z,26.00
2019-05-20T09:17:17.827Z,25.60
2019-05-20T09:19:47.267Z,25.90
2019-05-20T09:22:16.009Z,25.80
2019-05-20T09:24:45.689Z,25.80
2019-05-20T09:27:14.479Z,26.40
2019-05-20T09:29:43.393Z,27.00
2019-05-20T09:32:12.202Z,27.40
2019-05-20T09:34:41.780Z,27.80
2019-05-20T09:37:10.356Z,27.80
2019-05-20T09:39:38.903Z,27.80
2019-05-20T09:42:07.480Z,27.60
2019-05-20T09:44:36.087Z,27.40
2019-05-20T09:47:04.657Z,27.60
2019-05-20T09:49:33.428Z,27.20
2019-05-20T09:52:02.240Z,27.20
2019-05-20T09:54:30.805Z,27.90
2019-05-20T09:56:59.348Z,28.00
2019-05-20T09:59:42.159Z,27.80
2019-05-20T10:01:58.108Z,27.70
2019-05-20T10:04:26.769Z,27.30
2019-05-20T10:06:55.321Z,27.20
2019-05-20T10:09:24.062Z,27.00
2019-05-20T10:11:52.722Z,27.80
2019-05-20T10:14:21.317Z,28.60
2019-05-20T10:16:49.972Z,29.50
2019-05-20T10:19:18.546Z,30.50
2019-05-20T10:21:47.130Z,30.30
2019-05-20T10:24:15.648Z,29.30
2019-05-20T10:26:44.183Z,28.80
2019-05-20T10:29:12.684Z,27.40
2019-05-20T10:31:41.320Z,27.50
2019-05-20T10:34:09.880Z,28.00
2019-05-20T10:36:38.461Z,27.80
2019-05-20T10:39:08.434Z,27.00
2019-05-20T10:41:37.523Z,26.80
2019-05-20T10:44:06.093Z,26.60
2019-05-20T10:46:34.731Z,26.20
2019-05-20T10:49:03.333Z,26.10
2019-05-20T10:51:31.939Z,26.90
2019-05-20T10:54:00.881Z,27.70
2019-05-20T10:56:29.675Z,28.50
2019-05-20T10:58:58.236Z,28.10
2019-05-20T11:01:26.789Z,28.30
2019-05-20T11:03:55.360Z,29.60
2019-05-20T11:06:23.945Z,29.10
2019-05-20T11:08:52.589Z,28.50
2019-05-20T11:11:21.149Z,27.50
2019-05-20T11:13:49.720Z,26.90
2019-05-20T11:16:18.382Z,26.10
2019-05-20T11:18:46.891Z,25.50
2019-05-20T11:21:15.901Z,25.00
2019-05-20T11:23:44.445Z,24.60
2019-05-20T11:26:13.020Z,24.30
2019-05-20T11:28:43.124Z,24.00
2019-05-20T11:31:11.660Z,23.80
2019-05-20T11:33:40.245Z,23.70
2019-05-20T11:36:08.810Z,23.60
2019-05-20T11:38:37.348Z,23.40
2019-05-20T11:41:05.824Z,23.00
2019-05-20T11:43:34.440Z,22.30
2019-05-20T11:46:02.976Z,21.90
2019-05-20T11:48:31.520Z,21.70
2019-05-20T11:51:00.050Z,21.50
2019-05-20T11:53:28.660Z,21.30
2019-05-20T11:55:57.129Z,21.20
2019-05-20T11:58:25.660Z,21.30
2019-05-20T12:00:54.207Z,21.20
2019-05-20T12:03:22.755Z,21.20
2019-05-20T12:05:51.392Z,21.30
2019-05-20T12:08:19.937Z,21.40
2019-05-20T12:10:48.484Z,21.70
2019-05-20T12:13:17.063Z,21.90
2019-05-20T12:15:45.618Z,22.10
2019-05-20T12:18:15.100Z,22.20
2019-05-20T12:20:43.715Z,22.30
2019-05-20T12:23:12.261Z,22.50
2019-05-20T12:25:40.769Z,22.30
2019-05-20T12:28:09.413Z,22.00
2019-05-20T12:30:38.315Z,21.70
2019-05-20T12:33:18.552Z,21.50
2019-05-20T12:35:37.478Z,21.70
2019-05-20T12:38:06.070Z,21.80
2019-05-20T12:40:34.636Z,21.90
2019-05-20T12:43:03.816Z,22.10
2019-05-20T12:45:32.363Z,22.20
2019-05-20T12:48:00.945Z,22.10
2019-05-20T12:50:29.623Z,22.10
2019-05-20T12:52:58.172Z,22.20
2019-05-20T12:55:26.699Z,22.10
2019-05-20T12:57:55.217Z,22.20
2019-05-20T13:00:24.256Z,22.20
2019-05-20T13:02:52.830Z,22.30
2019-05-20T13:05:21.465Z,22.70
2019-05-20T13:07:49.928Z,22.80
2019-05-20T13:10:29.771Z,23.10
2019-05-20T13:12:48.977Z,23.30
2019-05-20T13:15:17.964Z,23.30
2019-05-20T13:17:46.543Z,23.20
2019-05-20T13:20:15.665Z,23.10
2019-05-20T13:22:44.328Z,23.00
2019-05-20T13:25:13.352Z,22.80
2019-05-20T13:27:41.961Z,22.60
2019-05-20T13:30:11.951Z,22.50
2019-05-20T13:32:40.546Z,22.40
2019-05-20T13:35:09.765Z,22.20
2019-05-20T13:37:38.329Z,22.00
2019-05-20T13:40:07.908Z,21.80
2019-05-20T13:42:36.679Z,21.60
2019-05-20T13:45:06.771Z,21.40
2019-05-20T13:47:35.624Z,21.30
2019-05-20T13:50:07.287Z,21.30
2019-05-20T13:52:35.882Z,21.20
2019-05-20T13:55:05.425Z,21.10
2019-05-20T13:57:34.463Z,21.00
2019-05-20T14:00:03.247Z,20.90
2019-05-20T14:02:31.779Z,20.90
2019-05-20T14:05:00.391Z,20.90
2019-05-20T14:07:28.969Z,20.90
2019-05-20T14:09:57.542Z,20.90
2019-05-20T14:12:26.158Z,20.90
2019-05-20T14:14:54.704Z,20.80
2019-05-20T14:17:23.210Z,20.80
2019-05-20T14:19:51.821Z,20.80
2019-05-20T14:22:20.385Z,20.40
2019-05-20T14:24:48.916Z,20.00
2019-05-20T14:27:17.641Z,19.50
2019-05-20T14:29:46.188Z,19.10
2019-05-20T14:32:14.714Z,18.70
2019-05-20T14:34:43.412Z,18.40
2019-05-20T14:37:11.987Z,18.00
2019-05-20T14:39:40.565Z,17.60
2019-05-20T14:42:09.448Z,17.20
2019-05-20T14:44:37.999Z,17.00
2019-05-20T14:47:06.571Z,16.80
2019-05-20T14:49:35.196Z,16.20
2019-05-20T14:52:03.897Z,16.10
2019-05-20T14:54:32.471Z,15.90
2019-05-20T14:57:01.072Z,15.60
2019-05-20T14:59:31.133Z,15.50
2019-05-20T15:01:59.728Z,15.60
2019-05-20T15:04:28.320Z,15.70
2019-05-20T15:06:56.884Z,15.60
2019-05-20T15:09:25.545Z,15.50
2019-05-20T15:11:54.357Z,15.40
2019-05-20T15:14:22.896Z,15.30
2019-05-20T15:16:51.363Z,15.20
2019-05-20T15:19:19.951Z,15.20
2019-05-20T15:21:48.572Z,15.20
2019-05-20T15:24:17.083Z,15.20
2019-05-20T15:26:46.030Z,15.30
2019-05-20T15:29:27.603Z,15.30
2019-05-20T15:31:44.844Z,15.40
2019-05-20T15:34:13.409Z,15.30
2019-05-20T15:36:41.983Z,15.40
2019-05-20T15:39:10.787Z,15.50
2019-05-20T15:41:39.324Z,15.50
2019-05-20T15:44:07.848Z,15.40
2019-05-20T15:46:36.421Z,15.40
2019-05-20T15:49:05.098Z,15.30
2019-05-20T15:51:33.670Z,15.30
2019-05-20T15:54:02.294Z,15.10
2019-05-20T15:56:31.613Z,15.10
2019-05-20T15:59:00.082Z,15.00
2019-05-20T16:01:28.771Z,15.10
2019-05-20T16:03:57.383Z,15.10
2019-05-20T16:06:25.997Z,15.20
2019-05-20T16:08:54.564Z,15.40
2019-05-20T16:11:23.156Z,15.50
2019-05-20T16:13:51.845Z,15.60
2019-05-20T16:16:20.478Z,15.70
2019-05-20T16:18:49.054Z,15.70
2019-05-20T16:21:17.598Z,15.70
2019-05-20T16:23:46.097Z,15.70
2019-05-20T16:26:14.671Z,15.70
2019-05-20T16:28:43.250Z,15.70
2019-05-20T16:31:11.936Z,15.70
2019-05-20T16:33:40.535Z,15.70
2019-05-20T16:36:09.076Z,15.80
2019-05-20T16:38:37.558Z,15.80
2019-05-20T16:41:06.229Z,15.70
2019-05-20T16:43:34.817Z,15.70
2019-05-20T16:46:03.380Z,15.70
2019-05-20T16:48:31.973Z,15.70
2019-05-20T16:51:00.535Z,15.60
2019-05-20T16:53:29.107Z,15.50
2019-05-20T16:55:58.476Z,15.50
2019-05-20T16:58:27.002Z,15.50
2019-05-20T17:00:55.480Z,15.40
2019-05-20T17:03:24.098Z,15.40
2019-05-20T17:05:52.632Z,15.30
2019-05-20T17:08:21.153Z,15.20
2019-05-20T17:10:49.687Z,15.20
2019-05-20T17:13:18.256Z,15.10
2019-05-20T17:15:46.828Z,15.00
2019-05-20T17:18:15.422Z,14.90
2019-05-20T17:20:46.131Z,14.90
2019-05-20T17:23:14.214Z,14.90
2019-05-20T17:25:42.837Z,14.90
2019-05-20T17:28:11.382Z,14.90
2019-05-20T17:30:45.359Z,14.80
2019-05-20T17:33:10.195Z,14.90
2019-05-20T17:35:38.740Z,14.90
2019-05-20T17:38:07.520Z,14.80
2019-05-20T17:40:36.349Z,14.90
2019-05-20T17:43:05.339Z,14.80
2019-05-20T17:45:33.858Z,14.80
2019-05-20T17:48:02.538Z,14.80
2019-05-20T17:50:31.141Z,14.90
2019-05-20T17:52:59.769Z,15.00
2019-05-20T17:55:29.767Z,15.00
2019-05-20T17:57:58.508Z,15.10
2019-05-20T18:00:27.053Z,15.10
2019-05-20T18:02:55.654Z,15.10
2019-05-20T18:05:24.231Z,15.20
2019-05-20T18:07:52.872Z,15.20
2019-05-20T18:10:23.084Z,15.20
2019-05-20T18:12:51.657Z,15.30
2019-05-20T18:15:20.871Z,15.30
2019-05-20T18:17:49.527Z,15.30
2019-05-20T18:20:18.212Z,15.30
2019-05-20T18:22:46.720Z,15.30
2019-05-20T18:25:15.747Z,15.30
2019-05-20T18:27:44.311Z,15.20
2019-05-20T18:30:13.965Z,15.20
2019-05-20T18:32:42.550Z,15.20
2019-05-20T18:35:11.861Z,15.20
2019-05-20T18:37:44.151Z,15.10
2019-05-20T18:40:15.104Z,15.10
2019-05-20T18:42:44.018Z,15.10
2019-05-20T18:45:13.091Z,15.10
2019-05-20T18:47:41.946Z,15.20
2019-05-20T18:50:11.066Z,15.20
2019-05-20T18:52:39.723Z,15.20
2019-05-20T18:55:08.714Z,15.20
2019-05-20T18:57:37.186Z,15.20
2019-05-20T19:00:08.932Z,15.20
2019-05-20T19:02:38.192Z,15.20
2019-05-20T19:05:07.569Z,15.20
2019-05-20T19:07:36.175Z,15.10
2019-05-20T19:10:06.097Z,15.10
2019-05-20T19:12:34.671Z,15.10
2019-05-20T19:15:03.755Z,15.10
2019-05-20T19:17:32.677Z,15.10
2019-05-20T19:20:01.452Z,15.10
2019-05-20T19:22:30.222Z,15.00
2019-05-20T19:24:58.785Z,15.10
2019-05-20T19:27:27.376Z,15.00
2019-05-20T19:29:55.907Z,15.00
2019-05-20T19:32:24.609Z,15.00
2019-05-20T19:34:53.180Z,15.00
2019-05-20T19:37:21.733Z,15.00
2019-05-20T19:39:50.291Z,14.90
2019-05-20T19:42:19.000Z,14.90
2019-05-20T19:44:47.741Z,14.90
2019-05-20T19:47:16.337Z,14.90
2019-05-20T19:49:44.906Z,14.90
2019-05-20T19:52:13.491Z,14.90
2019-05-20T19:54:42.069Z,14.90
2019-05-20T19:57:10.652Z,14.90
2019-05-20T19:59:39.195Z,14.90
2019-05-20T20:02:16.852Z,14.80
2019-05-20T20:04:37.991Z,14.80
2019-05-20T20:07:06.497Z,14.80
2019-05-20T20:09:35.220Z,14.80
2019-05-20T20:12:03.784Z,14.80
2019-05-20T20:14:32.420Z,14.80
2019-05-20T20:17:01.017Z,14.70
2019-05-20T20:19:29.495Z,14.60
2019-05-20T20:21:58.021Z,14.60
2019-05-20T20:24:27.142Z,14.60
2019-05-20T20:26:55.636Z,14.60
2019-05-20T20:29:24.184Z,14.70
2019-05-20T20:31:52.685Z,14.70
2019-05-20T20:34:21.260Z,14.80
2019-05-20T20:36:49.901Z,14.80
2019-05-20T20:39:18.496Z,14.80
2019-05-20T20:41:46.974Z,14.80
2019-05-20T20:44:15.516Z,14.80
2019-05-20T20:46:44.025Z,14.80
2019-05-20T20:49:14.770Z,14.80
2019-05-20T20:51:42.826Z,14.70
2019-05-20T20:54:11.440Z,14.70
2019-05-20T20:56:39.995Z,14.70
2019-05-20T20:59:08.588Z,14.70
2019-05-20T21:01:37.151Z,14.70
2019-05-20T21:04:05.762Z,14.70
2019-05-20T21:06:34.445Z,14.60
2019-05-20T21:09:03.851Z,14.60
2019-05-20T21:11:32.357Z,14.60
2019-05-20T21:14:00.887Z,14.60
2019-05-20T21:16:29.794Z,14.50
2019-05-20T21:18:58.347Z,14.60
2019-05-20T21:21:26.924Z,14.50
2019-05-20T21:23:55.541Z,14.50
2019-05-20T21:26:24.073Z,14.50
2019-05-20T21:28:52.620Z,14.60
2019-05-20T21:31:21.262Z,14.50
2019-05-20T21:33:49.844Z,14.60
2019-05-20T21:36:18.374Z,14.50
2019-05-20T21:38:46.943Z,14.50
2019-05-20T21:41:15.407Z,14.50
2019-05-20T21:43:43.919Z,14.50
2019-05-20T21:46:12.544Z,14.50
2019-05-20T21:48:41.077Z,14.40
2019-05-20T21:51:09.630Z,14.40
2019-05-20T21:53:38.207Z,14.40
2019-05-20T21:56:06.748Z,14.40
2019-05-20T21:58:35.326Z,14.40
2019-05-20T22:01:04.025Z,14.40
2019-05-20T22:03:32.526Z,14.40
2019-05-20T22:06:01.078Z,14.40
2019-05-20T22:08:29.976Z,14.30
2019-05-20T22:10:58.506Z,14.30
2019-05-20T22:13:27.081Z,14.30
2019-05-20T22:15:55.698Z,14.30
2019-05-20T22:18:24.268Z,14.30
2019-05-20T22:20:52.887Z,14.20
2019-05-20T22:23:23.071Z,14.20
2019-05-20T22:25:52.925Z,14.30
2019-05-20T22:28:21.489Z,14.30
2019-05-20T22:30:50.090Z,14.20
2019-05-20T22:33:18.883Z,14.30
2019-05-20T22:35:47.568Z,14.30
2019-05-20T22:38:16.128Z,14.20
2019-05-20T22:40:45.917Z,14.30
2019-05-20T22:43:14.453Z,14.20
2019-05-20T22:45:42.996Z,14.20
2019-05-20T22:48:11.588Z,14.20
2019-05-20T22:50:40.182Z,14.30
2019-05-20T22:53:08.788Z,14.30
2019-05-20T22:55:37.560Z,14.30
2019-05-20T22:58:06.382Z,14.30
2019-05-20T23:00:34.951Z,14.30
2019-05-20T23:03:03.499Z,14.20
2019-05-20T23:05:32.101Z,14.20
2019-05-20T23:08:00.637Z,14.30
2019-05-20T23:10:29.482Z,14.20
2019-05-20T23:12:58.059Z,14.30
2019-05-20T23:15:26.667Z,14.20
2019-05-20T23:17:55.205Z,14.30
2019-05-20T23:20:23.779Z,14.30
2019-05-20T23:22:52.387Z,14.30
2019-05-20T23:25:20.922Z,14.30
2019-05-20T23:27:49.416Z,14.30
2019-05-20T23:30:18.363Z,14.30
2019-05-20T23:32:46.985Z,14.30
2019-05-20T23:35:15.628Z,14.30
2019-05-20T23:37:44.225Z,14.30
2019-05-20T23:40:13.341Z,14.20
2019-05-20T23:42:41.873Z,14.20
2019-05-20T23:45:11.418Z,14.20
2019-05-20T23:47:39.989Z,14.20
2019-05-20T23:50:08.628Z,14.20
2019-05-20T23:52:37.205Z,14.20
2019-05-20T23:55:07.921Z,14.20
2019-05-20T23:57:36.558Z,14.20
